createdAt,value
2022-09-23T00:34:47.949Z,2.30
2022-09-23T00:37:16.707Z,2.20
2022-09-23T00:39:45.794Z,2.20
2022-09-23T00:42:21.800Z,2.20
2022-09-23T00:44:56.237Z,2.30
2022-09-23T00:47:51.778Z,2.40
2022-09-23T00:50:36.516Z,2.50
2022-09-23T00:53:08.067Z,2.50
2022-09-23T00:55:54.962Z,2.50
2022-09-23T00:58:31.172Z,2.50
2022-09-23T01:01:02.477Z,2.50
2022-09-23T01:03:30.551Z,2.40
2022-09-23T01:05:59.235Z,2.40
2022-09-23T01:08:28.487Z,2.40
2022-09-23T01:11:32.536Z,2.40
2022-09-23T01:14:22.025Z,2.40
2022-09-23T01:17:20.001Z,2.30
2022-09-23T01:20:04.010Z,2.20
2022-09-23T01:23:08.578Z,2.20
2022-09-23T01:26:09.384Z,2.10
2022-09-23T01:28:55.454Z,2.00
2022-09-23T01:31:33.682Z,2.00
2022-09-23T01:34:33.994Z,1.90
2022-09-23T01:37:13.587Z,1.90
2022-09-23T01:40:23.409Z,1.90
2022-09-23T01:42:56.546Z,1.90
2022-09-23T01:45:32.402Z,1.90
2022-09-23T01:48:30.010Z,1.80
2022-09-23T01:51:08.057Z,1.80
2022-09-23T01:53:45.978Z,1.80
2022-09-23T01:56:42.722Z,1.80
2022-09-23T01:59:17.105Z,1.70
2022-09-23T02:02:09.961Z,1.70
2022-09-23T02:04:51.461Z,1.70
2022-09-23T02:07:58.015Z,1.70
2022-09-23T02:10:51.309Z,1.70
2022-09-23T02:13:46.253Z,1.70
2022-09-23T02:16:31.608Z,1.70
2022-09-23T02:19:06.841Z,1.60
2022-09-23T02:21:40.651Z,1.70
2022-09-23T02:24:27.591Z,1.70
2022-09-23T02:27:04.982Z,1.80
2022-09-23T02:29:57.789Z,1.70
2022-09-23T02:32:36.681Z,1.70
2022-09-23T02:35:25.530Z,1.60
2022-09-23T02:38:31.311Z,1.70
2022-09-23T02:41:20.483Z,1.70
2022-09-23T02:43:53.885Z,1.70
2022-09-23T02:46:23.504Z,1.80
2022-09-23T02:49:01.106Z,1.80
2022-09-23T02:51:30.006Z,1.80
2022-09-23T02:53:58.736Z,1.70
2022-09-23T02:56:26.885Z,1.60
2022-09-23T02:58:55.075Z,1.60
2022-09-23T03:01:32.543Z,1.60
2022-09-23T03:04:09.231Z,1.60
2022-09-23T03:07:13.705Z,1.50
2022-09-23T03:10:20.056Z,1.50
2022-09-23T03:13:17.917Z,1.50
2022-09-23T03:16:18.860Z,1.50
2022-09-23T03:18:54.453Z,1.40
2022-09-23T03:21:32.700Z,1.40
2022-09-23T03:24:04.107Z,1.30
2022-09-23T03:26:36.498Z,1.40
2022-09-23T03:29:09.112Z,1.40
2022-09-23T03:31:42.498Z,1.40
2022-09-23T03:34:25.177Z,1.40
2022-09-23T03:37:14.158Z,1.40
2022-09-23T03:40:02.246Z,1.30
2022-09-23T03:42:33.207Z,1.30
2022-09-23T03:45:07.357Z,1.30
2022-09-23T05:10:22.523Z,1.30
2022-09-23T05:12:53.641Z,1.30
2022-09-23T05:19:01.089Z,1.70
2022-09-23T05:21:37.821Z,2.00
2022-09-23T05:24:05.971Z,2.10
2022-09-23T05:26:33.783Z,2.10
2022-09-23T05:29:02.021Z,2.20
2022-09-23T05:31:31.237Z,2.30
2022-09-23T05:34:03.567Z,2.40
2022-09-23T05:36:38.434Z,2.50
2022-09-23T05:39:09.168Z,2.60
2022-09-23T05:41:37.296Z,2.60
2022-09-23T05:44:05.265Z,2.70
2022-09-23T05:46:41.395Z,2.70
2022-09-23T05:49:09.993Z,2.70
2022-09-23T05:51:38.182Z,2.90
2022-09-23T05:54:07.695Z,3.00
2022-09-23T05:56:37.568Z,3.20
2022-09-23T05:59:07.065Z,3.40
2022-09-23T06:01:38.644Z,3.50
2022-09-23T06:04:12.164Z,3.60
2022-09-23T06:06:43.397Z,3.60
2022-09-23T06:09:14.745Z,3.70
2022-09-23T06:11:43.516Z,3.80
2022-09-23T06:14:15.115Z,3.90
2022-09-23T06:16:43.464Z,4.00
2022-09-23T06:19:10.900Z,4.10
2022-09-23T06:21:40.657Z,4.10
2022-09-23T06:24:09.366Z,4.20
2022-09-23T06:26:38.411Z,4.30
2022-09-23T06:29:11.836Z,4.30
2022-09-23T06:31:41.844Z,4.40
2022-09-23T06:34:14.731Z,4.50
2022-09-23T06:36:45.974Z,4.50
2022-09-23T06:39:15.705Z,4.60
2022-09-23T06:41:44.888Z,4.80
2022-09-23T06:44:15.976Z,4.80
2022-09-23T06:46:44.348Z,5.00
2022-09-23T06:49:13.047Z,5.20
2022-09-23T06:51:41.414Z,5.20
2022-09-23T06:54:09.535Z,5.40
2022-09-23T06:56:39.639Z,5.50
2022-09-23T06:59:12.942Z,5.70
2022-09-23T07:01:41.699Z,5.80
2022-09-23T07:04:10.734Z,6.00
2022-09-23T07:06:39.299Z,6.20
2022-09-23T07:09:08.987Z,6.40
2022-09-23T07:11:37.772Z,6.60
2022-09-23T07:14:06.780Z,6.80
2022-09-23T07:16:36.587Z,7.00
2022-09-23T07:19:03.376Z,7.20
2022-09-23T07:21:32.050Z,7.50
2022-09-23T07:24:00.713Z,7.70
2022-09-23T07:26:29.527Z,7.90
2022-09-23T07:29:04.585Z,8.10
2022-09-23T07:31:39.600Z,8.30
2022-09-23T07:34:11.330Z,8.50
2022-09-23T07:36:41.579Z,8.70
2022-09-23T07:39:13.150Z,8.90
2022-09-23T07:41:44.413Z,9.10
2022-09-23T07:44:12.875Z,9.40
2022-09-23T07:46:41.122Z,9.80
2022-09-23T07:49:10.606Z,10.10
2022-09-23T07:51:39.845Z,10.60
2022-09-23T07:54:12.977Z,11.30
2022-09-23T07:56:42.054Z,12.00
2022-09-23T07:59:15.345Z,12.70
2022-09-23T08:01:46.432Z,13.40
2022-09-23T08:04:19.719Z,14.40
2022-09-23T08:06:53.996Z,14.90
2022-09-23T08:09:26.264Z,15.40
2022-09-23T08:11:55.204Z,16.10
2022-09-23T08:14:23.183Z,16.90
2022-09-23T08:16:52.165Z,17.80
2022-09-23T08:19:20.037Z,18.40
2022-09-23T08:21:49.933Z,18.10
2022-09-23T08:24:19.611Z,18.10
2022-09-23T08:26:48.558Z,18.20
2022-09-23T08:29:18.238Z,18.00
2022-09-23T08:31:46.633Z,18.20
2022-09-23T08:34:15.423Z,18.30
2022-09-23T08:36:43.505Z,17.90
2022-09-23T08:39:16.744Z,18.10
2022-09-23T08:42:05.241Z,18.10
2022-09-23T08:44:54.088Z,18.30
2022-09-23T08:47:51.632Z,18.90
2022-09-23T08:50:24.521Z,19.20
2022-09-23T08:53:04.461Z,18.70
2022-09-23T08:55:50.936Z,18.20
2022-09-23T08:58:36.585Z,18.60
2022-09-23T09:01:26.017Z,19.40
2022-09-23T09:04:00.016Z,20.00
2022-09-23T09:06:53.468Z,20.40
2022-09-23T09:09:32.399Z,21.40
2022-09-23T09:12:25.640Z,20.60
2022-09-23T09:15:07.776Z,20.30
2022-09-23T09:17:50.867Z,20.00
2022-09-23T09:20:36.440Z,19.90
2022-09-23T09:23:23.651Z,20.10
2022-09-23T09:25:57.351Z,20.30
2022-09-23T09:28:45.916Z,20.40
2022-09-23T09:31:47.786Z,20.80
2022-09-23T09:34:57.791Z,20.50
2022-09-23T09:37:44.603Z,20.50
2022-09-23T09:40:15.201Z,20.30
2022-09-23T09:42:48.509Z,20.50
2022-09-23T09:45:30.100Z,20.50
2022-09-23T09:48:11.991Z,20.70
2022-09-23T09:50:52.207Z,20.70
2022-09-23T09:53:35.915Z,20.20
2022-09-23T09:56:12.322Z,20.20
2022-09-23T09:58:59.759Z,20.40
2022-09-23T10:01:34.947Z,20.70
2022-09-23T10:04:21.515Z,21.80
2022-09-23T10:07:13.311Z,21.20
2022-09-23T10:09:49.328Z,20.80
2022-09-23T10:12:25.809Z,20.90
2022-09-23T10:14:57.637Z,20.70
2022-09-23T10:17:36.164Z,20.60
2022-09-23T10:20:08.377Z,20.60
2022-09-23T10:22:42.557Z,20.70
2022-09-23T10:25:19.227Z,20.50
2022-09-23T10:27:47.495Z,20.40
2022-09-23T10:30:26.671Z,20.20
2022-09-23T10:32:57.653Z,20.00
2022-09-23T10:35:26.725Z,20.20
2022-09-23T10:37:59.731Z,20.30
2022-09-23T10:41:12.249Z,20.40
2022-09-23T10:44:19.847Z,20.80
2022-09-23T10:47:05.595Z,21.10
2022-09-23T10:50:20.761Z,20.80
2022-09-23T10:53:00.211Z,20.60
2022-09-23T10:55:43.255Z,20.50
2022-09-23T10:58:44.660Z,20.70
2022-09-23T11:01:49.317Z,20.50
2022-09-23T11:04:43.740Z,20.30
2022-09-23T11:07:54.341Z,20.20
2022-09-23T11:11:03.958Z,20.30
2022-09-23T11:13:54.609Z,20.80
2022-09-23T11:16:59.300Z,20.60
2022-09-23T11:19:54.125Z,20.70
2022-09-23T11:23:08.141Z,20.60
2022-09-23T11:26:02.498Z,20.40
2022-09-23T11:28:49.736Z,20.50
2022-09-23T11:31:59.315Z,20.50
2022-09-23T11:34:58.227Z,20.80
2022-09-23T11:37:34.893Z,21.40
2022-09-23T11:40:30.215Z,21.40
2022-09-23T11:43:23.972Z,21.10
2022-09-23T11:46:20.315Z,21.30
2022-09-23T11:49:21.607Z,21.60
2022-09-23T11:52:26.527Z,22.00
2022-09-23T11:55:23.528Z,21.40
2022-09-23T11:58:29.971Z,21.00
2022-09-23T12:01:09.998Z,21.30
2022-09-23T12:04:09.039Z,21.70
2022-09-23T12:06:52.553Z,22.00
2022-09-23T12:09:56.806Z,22.30
2022-09-23T12:12:39.083Z,22.30
2022-09-23T12:15:31.780Z,21.90
2022-09-23T12:18:11.344Z,22.10
2022-09-23T12:20:53.936Z,22.50
2022-09-23T12:23:41.795Z,22.70
2022-09-23T12:26:17.136Z,22.40
2022-09-23T12:28:49.093Z,22.30
2022-09-23T12:31:19.041Z,21.70
2022-09-23T12:33:54.761Z,21.90
2022-09-23T12:36:35.388Z,21.70
2022-09-23T12:39:23.149Z,21.30
2022-09-23T12:42:00.520Z,21.10
2022-09-23T12:44:44.183Z,21.20
2022-09-23T12:47:15.073Z,21.30
2022-09-23T12:49:43.715Z,21.10
2022-09-23T12:52:19.505Z,21.40
2022-09-23T12:54:52.319Z,21.70
2022-09-23T12:57:37.506Z,21.50
2022-09-23T13:00:14.248Z,21.30
2022-09-23T13:02:47.175Z,21.60
2022-09-23T13:05:44.119Z,22.40
2022-09-23T13:08:20.158Z,22.60
2022-09-23T13:10:55.403Z,22.70
2022-09-23T13:13:44.252Z,22.90
2022-09-23T13:16:25.145Z,22.80
2022-09-23T13:19:27.658Z,22.90
2022-09-23T13:21:59.972Z,22.50
2022-09-23T13:24:43.489Z,22.80
2022-09-23T13:27:36.750Z,23.10
2022-09-23T13:30:16.320Z,22.40
2022-09-23T13:33:04.634Z,22.10
2022-09-23T13:35:52.890Z,22.10
2022-09-23T13:38:29.847Z,22.40
2022-09-23T13:41:28.603Z,23.10
2022-09-23T13:43:59.057Z,23.50
2022-09-23T13:46:43.120Z,23.30
2022-09-23T13:49:24.599Z,23.10
2022-09-23T13:51:57.071Z,22.40
2022-09-23T13:54:38.142Z,22.90
2022-09-23T13:57:06.591Z,23.60
2022-09-23T13:59:40.994Z,23.10
2022-09-23T14:02:17.895Z,22.70
2022-09-23T14:04:45.995Z,22.40
2022-09-23T14:07:16.301Z,22.40
2022-09-23T14:09:48.323Z,22.60
2022-09-23T14:12:22.346Z,22.40
2022-09-23T14:14:52.553Z,22.60
2022-09-23T14:17:25.454Z,22.50
2022-09-23T14:19:52.488Z,21.60
2022-09-23T14:22:28.396Z,20.50
2022-09-23T14:24:57.781Z,19.80
2022-09-23T14:27:36.462Z,19.40
2022-09-23T14:30:04.827Z,19.30
2022-09-23T14:32:33.262Z,19.10
2022-09-23T14:35:00.366Z,19.00
2022-09-23T14:37:54.983Z,19.00
2022-09-23T14:40:30.205Z,19.00
2022-09-23T14:43:23.078Z,18.90
2022-09-23T14:45:56.353Z,18.80
2022-09-23T14:48:33.466Z,18.60
2022-09-23T14:51:03.696Z,18.40
2022-09-23T14:53:46.733Z,18.40
2022-09-23T14:56:22.443Z,18.20
2022-09-23T14:59:00.673Z,18.20
2022-09-23T15:01:31.485Z,18.10
2022-09-23T15:04:20.224Z,18.00
2022-09-23T15:06:58.513Z,18.00
2022-09-23T15:09:30.833Z,18.00
2022-09-23T15:12:06.848Z,18.00
2022-09-23T15:14:40.947Z,17.90
2022-09-23T15:17:24.024Z,17.80
2022-09-23T15:19:57.162Z,17.80
2022-09-23T15:22:25.454Z,17.60
2022-09-23T15:25:08.158Z,17.60
2022-09-23T15:27:35.766Z,17.40
2022-09-23T15:30:17.540Z,17.30
2022-09-23T15:32:46.029Z,17.10
2022-09-23T15:35:22.194Z,16.90
2022-09-23T15:37:51.505Z,16.90
2022-09-23T15:40:29.286Z,16.80
2022-09-23T15:42:58.963Z,16.80
2022-09-23T15:45:31.981Z,16.80
2022-09-23T15:48:11.762Z,16.80
2022-09-23T15:50:43.865Z,16.90
2022-09-23T15:53:27.054Z,16.90
2022-09-23T15:55:55.716Z,17.00
2022-09-23T15:58:26.033Z,17.00
2022-09-23T16:00:56.950Z,17.00
2022-09-23T16:03:30.234Z,17.10
2022-09-23T16:06:03.051Z,17.10
2022-09-23T16:08:32.920Z,17.10
2022-09-23T16:11:00.614Z,17.10
2022-09-23T16:13:30.080Z,17.10
2022-09-23T16:15:57.905Z,17.10
2022-09-23T16:18:26.277Z,17.00
2022-09-23T16:20:54.716Z,16.90
2022-09-23T16:23:35.698Z,16.70
2022-09-23T16:26:13.951Z,16.70
2022-09-23T16:28:43.198Z,16.60
2022-09-23T16:31:16.280Z,16.50
2022-09-23T16:33:46.538Z,16.40
2022-09-23T16:36:25.857Z,16.30
2022-09-23T16:38:56.003Z,16.20
2022-09-23T16:41:24.794Z,16.10
2022-09-23T16:43:53.783Z,15.90
2022-09-23T16:46:24.319Z,15.80
2022-09-23T16:48:53.260Z,15.60
2022-09-23T16:51:26.646Z,15.40
2022-09-23T16:53:55.833Z,15.20
2022-09-23T16:56:28.721Z,15.00
2022-09-23T16:58:57.379Z,14.80
2022-09-23T17:01:45.181Z,14.60
2022-09-23T17:04:15.549Z,14.40
2022-09-23T17:06:50.795Z,14.20
2022-09-23T17:09:21.325Z,14.00
2022-09-23T17:12:04.853Z,13.80
2022-09-23T17:14:33.847Z,13.60
2022-09-23T17:17:02.183Z,13.50
2022-09-23T17:19:29.200Z,13.40
2022-09-23T17:21:56.755Z,13.20
2022-09-23T17:24:24.720Z,13.00
2022-09-23T17:26:53.394Z,12.90
2022-09-23T17:29:21.587Z,12.70
2022-09-23T17:31:51.459Z,12.60
2022-09-23T17:34:19.393Z,12.50
2022-09-23T17:36:47.948Z,12.30
2022-09-23T17:39:15.515Z,12.10
2022-09-23T17:41:45.326Z,11.90
2022-09-23T17:44:15.581Z,11.80
2022-09-23T17:46:44.041Z,11.70
2022-09-23T17:49:12.647Z,11.60
2022-09-23T17:51:41.036Z,11.60
2022-09-23T17:54:08.890Z,11.60
2022-09-23T17:56:36.835Z,11.60
2022-09-23T17:59:04.563Z,11.60
2022-09-23T18:01:33.112Z,11.50
2022-09-23T18:04:05.431Z,11.40
2022-09-23T18:06:38.091Z,11.40
2022-09-23T18:09:07.906Z,11.30
2022-09-23T18:11:38.262Z,11.20
2022-09-23T18:14:22.119Z,11.10
2022-09-23T18:16:56.495Z,11.00
2022-09-23T18:19:24.583Z,11.00
2022-09-23T18:21:57.276Z,11.00
2022-09-23T18:24:32.264Z,10.90
2022-09-23T18:27:01.026Z,10.80
2022-09-23T18:29:29.073Z,10.70
2022-09-23T18:31:56.604Z,10.60
2022-09-23T18:34:25.249Z,10.50
2022-09-23T18:36:58.160Z,10.50
2022-09-23T18:39:26.016Z,10.60
2022-09-23T18:41:54.910Z,10.60
2022-09-23T18:44:24.258Z,10.50
2022-09-23T18:46:56.451Z,10.50
2022-09-23T18:49:45.010Z,10.50
2022-09-23T18:52:16.030Z,10.50
2022-09-23T18:54:44.629Z,10.50
2022-09-23T18:57:14.758Z,10.50
2022-09-23T18:59:44.761Z,10.40
2022-09-23T19:02:15.486Z,10.40
2022-09-23T19:04:43.570Z,10.30
2022-09-23T19:07:12.466Z,10.30
2022-09-23T19:09:45.627Z,10.20
2022-09-23T19:12:18.627Z,10.20
2022-09-23T19:14:47.635Z,10.20
2022-09-23T19:17:16.305Z,10.10
2022-09-23T19:19:50.009Z,10.10
2022-09-23T19:22:19.412Z,10.00
2022-09-23T19:24:55.839Z,9.90
2022-09-23T19:27:24.042Z,9.70
2022-09-23T19:29:59.949Z,9.60
2022-09-23T19:32:30.402Z,9.60
2022-09-23T19:34:58.688Z,9.50
2022-09-23T19:37:27.992Z,9.50
2022-09-23T19:39:56.499Z,9.50
2022-09-23T19:42:28.720Z,9.40
2022-09-23T19:44:58.645Z,9.40
2022-09-23T19:47:28.302Z,9.40
2022-09-23T19:50:14.193Z,9.40
2022-09-23T19:52:50.904Z,9.20
2022-09-23T19:55:37.848Z,9.10
2022-09-23T19:58:10.958Z,9.00
2022-09-23T20:00:41.711Z,9.00
2022-09-23T20:07:59.747Z,8.90
2022-09-23T20:11:05.589Z,8.80
2022-09-23T20:13:53.245Z,8.80
2022-09-23T20:20:44.577Z,8.90
2022-09-23T20:23:14.485Z,8.90
2022-09-23T20:30:08.024Z,8.90
2022-09-23T20:32:45.071Z,9.00
2022-09-23T20:38:55.999Z,9.30
2022-09-23T20:41:24.239Z,9.40
2022-09-23T20:43:59.338Z,9.40
2022-09-23T20:46:28.610Z,9.40
2022-09-23T20:48:56.923Z,9.30
2022-09-23T20:51:25.682Z,9.30
2022-09-23T20:53:53.592Z,9.30
2022-09-23T20:56:22.750Z,9.30
2022-09-23T20:58:52.421Z,9.30
2022-09-23T21:01:21.761Z,9.30
2022-09-23T21:03:52.342Z,9.30
2022-09-23T21:06:20.261Z,9.30
2022-09-23T21:08:52.869Z,9.30
2022-09-23T21:11:21.870Z,9.40
2022-09-23T21:13:51.702Z,9.50
2022-09-23T21:16:22.646Z,9.40
2022-09-23T21:18:52.050Z,9.30
2022-09-23T21:21:22.297Z,9.30
2022-09-23T21:23:51.051Z,9.30
2022-09-23T21:26:24.681Z,9.20
2022-09-23T21:28:57.778Z,9.30
2022-09-23T21:31:36.309Z,9.30
2022-09-23T21:34:08.605Z,9.40
2022-09-23T21:36:38.412Z,9.30
2022-09-23T21:39:09.022Z,9.30
2022-09-23T21:41:39.102Z,9.20
2022-09-23T21:44:08.317Z,9.20
2022-09-23T21:46:36.847Z,9.20
2022-09-23T21:49:05.191Z,9.20
2022-09-23T21:51:38.557Z,9.20
2022-09-23T21:54:07.490Z,9.20
2022-09-23T21:56:36.404Z,9.20
2022-09-23T21:59:05.758Z,9.20
2022-09-23T22:01:35.156Z,9.20
2022-09-23T22:04:13.160Z,9.20
2022-09-23T22:06:41.745Z,9.20
2022-09-23T22:09:16.160Z,9.20
2022-09-23T22:12:03.203Z,9.30
2022-09-23T22:14:31.160Z,9.30
2022-09-23T22:17:05.104Z,9.40
2022-09-23T22:19:35.855Z,9.40
2022-09-23T22:22:13.242Z,9.40
2022-09-23T22:24:45.761Z,9.40
2022-09-23T22:27:16.299Z,9.50
2022-09-23T22:30:02.664Z,9.50
2022-09-23T22:32:40.375Z,9.60
2022-09-23T22:35:10.360Z,9.60
2022-09-23T22:37:37.945Z,9.60
2022-09-23T22:40:08.360Z,9.60
2022-09-23T22:42:36.612Z,9.60
2022-09-23T22:45:05.980Z,9.70
2022-09-23T22:47:38.041Z,9.80
2022-09-23T22:50:07.159Z,9.90
2022-09-23T22:52:36.317Z,9.90
2022-09-23T22:55:05.008Z,9.90
2022-09-23T22:57:32.931Z,9.90
2022-09-23T23:00:00.860Z,9.90
2022-09-23T23:02:31.494Z,10.00
2022-09-23T23:05:00.490Z,10.00
2022-09-23T23:07:27.744Z,10.00
2022-09-23T23:09:55.833Z,10.10
2022-09-23T23:12:25.128Z,10.10
2022-09-23T23:14:53.508Z,10.20
2022-09-23T23:17:21.929Z,10.20
2022-09-23T23:19:50.893Z,10.20
2022-09-23T23:22:19.629Z,10.20
2022-09-23T23:24:47.732Z,10.30
2022-09-23T23:27:14.915Z,10.30
2022-09-23T23:29:44.065Z,10.40
2022-09-23T23:32:11.887Z,10.40
2022-09-23T23:34:40.209Z,10.50
2022-09-23T23:37:07.139Z,10.50
2022-09-23T23:39:35.292Z,10.60
2022-09-23T23:42:04.217Z,10.50
2022-09-23T23:44:34.198Z,10.50
2022-09-23T23:47:02.612Z,10.50
2022-09-23T23:49:31.287Z,10.40
2022-09-23T23:51:58.964Z,10.40
2022-09-23T23:54:27.662Z,10.40
2022-09-23T23:56:57.078Z,10.50
2022-09-23T23:59:24.738Z,10.40
